Time;durP1;ratioP1;P1;durP2;ratioP2;P2;SDS_P1;SDS_P2;PMS_P1;PMS_P2;Temp;Humidity;BMP_temperature;BMP_pressure;BME280_temperature;BME280_humidity;BME280_pressure;Samples;Min_cycle;Max_cycle;Signal;HPM_P1;HPM_P2
2023/06/07 00:01:33;;;;;;;0.10;0.10;;;;;;;;;;5110319;28;20051;-50
2023/06/07 00:03:59;;;;;;;0.10;0.10;;;;;;;;;;5114422;28;20092;-47
2023/06/07 00:06:25;;;;;;;0.20;0.20;;;;;;;;;;5113534;28;20446;-47
2023/06/07 00:08:50;;;;;;;0.10;0.10;;;;;;;;;;5086232;28;20063;-49
2023/06/07 00:11:16;;;;;;;0.10;0.10;;;;;;;;;;5108311;28;20170;-47
2023/06/07 00:13:41;;;;;;;0.13;0.13;;;;;;;;;;5114153;28;20137;-47
2023/06/07 00:16:07;;;;;;;0.20;0.20;;;;;;;;;;5113653;28;20051;-47
2023/06/07 00:18:33;;;;;;;0.20;0.20;;;;;;;;;;5113613;28;20078;-48
2023/06/07 00:20:59;;;;;;;0.20;0.20;;;;;;;;;;5113615;27;20066;-49
2023/06/07 00:23:26;;;;;;;0.20;0.20;;;;;;;;;;5117315;27;20411;-47
2023/06/07 00:25:52;;;;;;;0.20;0.20;;;;;;;;;;5117357;28;20130;-47
2023/06/07 00:28:17;;;;;;;0.20;0.20;;;;;;;;;;5116982;28;20138;-48
2023/06/07 00:30:43;;;;;;;0.20;0.20;;;;;;;;;;5116002;28;20043;-49
2023/06/07 00:33:08;;;;;;;0.20;0.20;;;;;;;;;;5116733;28;20058;-48
2023/06/07 00:35:34;;;;;;;0.10;0.10;;;;;;;;;;5076514;27;20048;-48
2023/06/07 00:38:00;;;;;;;0.20;0.20;;;;;;;;;;5075979;28;20040;-47
2023/06/07 00:40:25;;;;;;;0.20;0.20;;;;;;;;;;5092318;28;20051;-48
2023/06/07 00:42:51;;;;;;;0.20;0.20;;;;;;;;;;5116101;28;20100;-48
2023/06/07 00:45:16;;;;;;;0.20;0.20;;;;;;;;;;5117406;28;20278;-48
2023/06/07 00:47:42;;;;;;;0.20;0.20;;;;;;;;;;5116629;28;20572;-48
2023/06/07 00:50:07;;;;;;;0.20;0.20;;;;;;;;;;5116048;28;20341;-48
2023/06/07 00:52:34;;;;;;;0.20;0.20;;;;;;;;;;5116005;28;20454;-48
2023/06/07 00:55:01;;;;;;;0.20;0.20;;;;;;;;;;5116968;28;20099;-48
2023/06/07 00:57:29;;;;;;;0.20;0.20;;;;;;;;;;5136794;27;20043;-47
2023/06/07 00:59:55;;;;;;;0.10;0.10;;;;;;;;;;5132711;27;20565;-47
2023/06/07 01:02:20;;;;;;;0.10;0.10;;;;;;;;;;5115889;28;20343;-48
2023/06/07 01:04:49;;;;;;;0.20;0.20;;;;;;;;;;5116471;28;20067;-49
2023/06/07 01:07:17;;;;;;;0.20;0.20;;;;;;;;;;5116167;28;20167;-48
2023/06/07 01:09:43;;;;;;;0.10;0.10;;;;;;;;;;5089587;28;20087;-47
2023/06/07 01:12:13;;;;;;;0.20;0.20;;;;;;;;;;5115796;28;20092;-49
2023/06/07 01:14:38;;;;;;;0.20;0.20;;;;;;;;;;5115629;28;20043;-48
2023/06/07 01:17:04;;;;;;;0.15;0.15;;;;;;;;;;5116154;28;20142;-49
2023/06/07 01:19:30;;;;;;;0.20;0.20;;;;;;;;;;5116164;28;20078;-48
2023/06/07 01:21:57;;;;;;;0.20;0.20;;;;;;;;;;5115329;27;20046;-48
2023/06/07 01:24:23;;;;;;;0.20;0.20;;;;;;;;;;5115677;28;20075;-48
2023/06/07 01:26:53;;;;;;;0.20;0.20;;;;;;;;;;5116043;28;20391;-48
2023/06/07 01:29:19;;;;;;;0.20;0.20;;;;;;;;;;5116241;28;20043;-47
2023/06/07 01:31:46;;;;;;;0.10;0.10;;;;;;;;;;5094912;27;20043;-48
2023/06/07 01:34:12;;;;;;;0.20;0.20;;;;;;;;;;5135490;27;20046;-48
2023/06/07 01:36:39;;;;;;;0.10;0.10;;;;;;;;;;5137009;27;20495;-47
2023/06/07 01:39:06;;;;;;;0.20;0.20;;;;;;;;;;5136737;27;20411;-48
2023/06/07 01:41:32;;;;;;;0.20;0.20;;;;;;;;;;5117417;27;20560;-47
2023/06/07 01:43:59;;;;;;;0.10;0.10;;;;;;;;;;5115548;28;20080;-48
2023/06/07 01:46:24;;;;;;;0.20;0.20;;;;;;;;;;5115421;28;20062;-48
2023/06/07 01:48:50;;;;;;;0.20;0.20;;;;;;;;;;5115793;28;20387;-48
2023/06/07 01:51:16;;;;;;;0.20;0.20;;;;;;;;;;5113932;28;20073;-47
2023/06/07 01:53:42;;;;;;;0.10;0.10;;;;;;;;;;5115463;28;20484;-48
2023/06/07 01:56:13;;;;;;;0.10;0.10;;;;;;;;;;5115276;28;20490;-47
2023/06/07 01:58:44;;;;;;;0.20;0.20;;;;;;;;;;5115579;28;20051;-47
2023/06/07 02:01:16;;;;;;;0.10;0.10;;;;;;;;;;5115017;28;20070;-47
2023/06/07 02:03:45;;;;;;;0.20;0.20;;;;;;;;;;5094955;28;20316;-47
2023/06/07 02:06:13;;;;;;;0.10;0.10;;;;;;;;;;5094562;28;20052;-48
2023/06/07 02:08:41;;;;;;;0.10;0.10;;;;;;;;;;5079370;28;20086;-47
2023/06/07 02:11:07;;;;;;;;;;;;;;;;;;5109499;28;20079;-48
2023/06/07 02:13:35;;;;;;;0.20;0.20;;;;;;;;;;5114818;28;20366;-50
2023/06/07 02:16:04;;;;;;;0.20;0.20;;;;;;;;;;5115162;28;20059;-49
2023/06/07 02:18:31;;;;;;;0.20;0.20;;;;;;;;;;5115217;28;20039;-48
2023/06/07 02:20:56;;;;;;;0.20;0.20;;;;;;;;;;5114795;28;20054;-49
2023/06/07 02:23:22;;;;;;;0.20;0.20;;;;;;;;;;5092163;28;20052;-48
2023/06/07 02:25:48;;;;;;;0.20;0.20;;;;;;;;;;5093318;28;20531;-48
2023/06/07 02:28:13;;;;;;;0.20;0.20;;;;;;;;;;5094694;28;20075;-47
2023/06/07 02:30:39;;;;;;;0.13;0.13;;;;;;;;;;5104718;28;20097;-47
2023/06/07 02:33:06;;;;;;;0.20;0.20;;;;;;;;;;5116944;27;20050;-48
2023/06/07 02:35:32;;;;;;;0.10;0.10;;;;;;;;;;5115135;27;20134;-47
2023/06/07 02:37:57;;;;;;;0.20;0.20;;;;;;;;;;5115266;28;20138;-47
2023/06/07 02:40:23;;;;;;;0.15;0.15;;;;;;;;;;5115314;28;20070;-47
2023/06/07 02:42:49;;;;;;;0.20;0.20;;;;;;;;;;5114040;28;20085;-47
2023/06/07 02:45:14;;;;;;;0.20;0.20;;;;;;;;;;5114355;27;20051;-47
2023/06/07 02:47:40;;;;;;;0.20;0.20;;;;;;;;;;5114796;28;20074;-48
2023/06/07 02:50:06;;;;;;;0.10;0.10;;;;;;;;;;5096424;28;20051;-47
2023/06/07 02:52:33;;;;;;;0.20;0.20;;;;;;;;;;5112574;27;20087;-48
2023/06/07 02:54:59;;;;;;;0.20;0.20;;;;;;;;;;5096326;28;20510;-47
2023/06/07 02:57:25;;;;;;;0.20;0.20;;;;;;;;;;5114372;28;20074;-49
2023/06/07 02:59:52;;;;;;;0.20;0.20;;;;;;;;;;5114500;28;20138;-47
2023/06/07 03:02:18;;;;;;;0.20;0.20;;;;;;;;;;5114579;28;20055;-48
2023/06/07 03:04:44;;;;;;;0.20;0.20;;;;;;;;;;5114008;28;20099;-47
2023/06/07 03:07:10;;;;;;;0.10;0.10;;;;;;;;;;5113984;28;20130;-48
2023/06/07 03:09:36;;;;;;;0.20;0.20;;;;;;;;;;5087946;28;20131;-47
2023/06/07 03:12:01;;;;;;;0.20;0.20;;;;;;;;;;5114295;28;20050;-47
2023/06/07 03:14:27;;;;;;;0.20;0.20;;;;;;;;;;5114006;28;20488;-48
2023/06/07 03:16:53;;;;;;;0.20;0.20;;;;;;;;;;5114009;28;20051;-48
2023/06/07 03:19:18;;;;;;;0.20;0.20;;;;;;;;;;5114382;28;20051;-49
2023/06/07 03:21:44;;;;;;;0.20;0.20;;;;;;;;;;5113529;27;20043;-47
2023/06/07 03:24:11;;;;;;;0.20;0.20;;;;;;;;;;5113133;28;20043;-48
2023/06/07 03:26:36;;;;;;;0.10;0.10;;;;;;;;;;5095591;28;20205;-48
2023/06/07 03:29:02;;;;;;;0.20;0.20;;;;;;;;;;5113771;28;20050;-49
2023/06/07 03:31:28;;;;;;;0.20;0.20;;;;;;;;;;5119364;27;20491;-47
2023/06/07 03:33:54;;;;;;;0.20;0.20;;;;;;;;;;5129005;27;20047;-48
2023/06/07 03:36:25;;;;;;;0.17;0.17;;;;;;;;;;5115705;27;20055;-48
2023/06/07 03:38:52;;;;;;;0.20;0.20;;;;;;;;;;5113096;27;20047;-48
2023/06/07 03:41:18;;;;;;;0.20;0.20;;;;;;;;;;5113405;27;20495;-47
2023/06/07 03:43:43;;;;;;;0.20;0.20;;;;;;;;;;5113257;28;20051;-47
2023/06/07 03:46:09;;;;;;;0.20;0.20;;;;;;;;;;5113425;28;20047;-48
2023/06/07 03:48:34;;;;;;;0.20;0.20;;;;;;;;;;5113375;28;20479;-49
2023/06/07 03:51:00;;;;;;;0.20;0.20;;;;;;;;;;5113629;28;20065;-48
2023/06/07 03:53:25;;;;;;;0.20;0.20;;;;;;;;;;5113360;28;20039;-48
2023/06/07 03:55:52;;;;;;;0.20;0.20;;;;;;;;;;5113544;27;20050;-48
2023/06/07 03:58:18;;;;;;;0.20;0.20;;;;;;;;;;5098076;28;20058;-47
2023/06/07 04:00:47;;;;;;;0.20;0.20;;;;;;;;;;5116980;28;20051;-47
2023/06/07 04:03:12;;;;;;;0.20;0.20;;;;;;;;;;5117451;28;20047;-50
2023/06/07 04:05:38;;;;;;;0.20;0.20;;;;;;;;;;5117057;28;20112;-48
2023/06/07 04:08:05;;;;;;;0.20;0.20;;;;;;;;;;5108317;28;20079;-51
2023/06/07 04:10:30;;;;;;;0.20;0.20;;;;;;;;;;5105565;28;20098;-47
2023/06/07 04:12:56;;;;;;;0.20;0.20;;;;;;;;;;5095215;28;20310;-47
2023/06/07 04:15:21;;;;;;;0.20;0.20;;;;;;;;;;5116950;28;20082;-49
2023/06/07 04:17:47;;;;;;;0.20;0.20;;;;;;;;;;5116944;28;20047;-47
2023/06/07 04:20:14;;;;;;;0.20;0.20;;;;;;;;;;5116608;28;20051;-47
2023/06/07 04:22:41;;;;;;;0.20;0.20;;;;;;;;;;5094769;28;20559;-48
2023/06/07 04:25:07;;;;;;;0.20;0.20;;;;;;;;;;5096683;28;20066;-47
2023/06/07 04:27:34;;;;;;;0.10;0.10;;;;;;;;;;5096400;28;20051;-47
2023/06/07 04:30:02;;;;;;;0.10;0.10;;;;;;;;;;5100346;27;20046;-48
2023/06/07 04:32:29;;;;;;;0.20;0.20;;;;;;;;;;5094745;28;20502;-47
2023/06/07 04:34:55;;;;;;;0.20;0.20;;;;;;;;;;5078182;28;20039;-47
2023/06/07 04:37:20;;;;;;;0.20;0.20;;;;;;;;;;5106370;28;20043;-47
2023/06/07 04:39:48;;;;;;;0.20;0.20;;;;;;;;;;5116260;27;20112;-48
2023/06/07 04:42:16;;;;;;;0.20;0.20;;;;;;;;;;5115868;28;20089;-49
2023/06/07 04:44:42;;;;;;;0.10;0.10;;;;;;;;;;5116826;28;20517;-49
2023/06/07 04:47:09;;;;;;;0.20;0.20;;;;;;;;;;5114814;28;20090;-47
2023/06/07 04:49:38;;;;;;;0.20;0.20;;;;;;;;;;5115188;28;20080;-50
2023/06/07 04:52:05;;;;;;;0.20;0.20;;;;;;;;;;5114512;28;20042;-50
2023/06/07 04:54:32;;;;;;;0.20;0.20;;;;;;;;;;5097285;28;20043;-49
2023/06/07 04:56:58;;;;;;;0.20;0.20;;;;;;;;;;5102754;28;20050;-48
2023/06/07 04:59:24;;;;;;;0.20;0.20;;;;;;;;;;5115483;28;20043;-48
2023/06/07 05:01:51;;;;;;;0.20;0.20;;;;;;;;;;5114624;28;20085;-51
2023/06/07 05:04:16;;;;;;;0.30;0.30;;;;;;;;;;5113929;28;20288;-48
2023/06/07 05:06:42;;;;;;;0.20;0.20;;;;;;;;;;5109238;27;20355;-51
2023/06/07 05:09:08;;;;;;;0.20;0.20;;;;;;;;;;5112129;28;20035;-48
2023/06/07 05:11:33;;;;;;;0.20;0.20;;;;;;;;;;5115301;28;20083;-47
2023/06/07 05:13:59;;;;;;;0.20;0.20;;;;;;;;;;5114501;28;20039;-49
2023/06/07 05:16:24;;;;;;;0.20;0.20;;;;;;;;;;5115502;28;20043;-49
2023/06/07 05:18:50;;;;;;;0.20;0.20;;;;;;;;;;5115905;28;20551;-50
2023/06/07 05:21:16;;;;;;;0.20;0.20;;;;;;;;;;5116645;27;20419;-51
2023/06/07 05:23:42;;;;;;;0.20;0.20;;;;;;;;;;5109802;27;20836;-49
2023/06/07 05:26:08;;;;;;;0.17;0.17;;;;;;;;;;5109321;28;20620;-48
2023/06/07 05:28:34;;;;;;;0.20;0.20;;;;;;;;;;5113580;27;20077;-51
2023/06/07 05:30:59;;;;;;;0.20;0.20;;;;;;;;;;5114703;27;20099;-49
2023/06/07 05:33:27;;;;;;;0.20;0.20;;;;;;;;;;5114944;28;20492;-49
2023/06/07 05:35:53;;;;;;;0.20;0.20;;;;;;;;;;5114464;28;20082;-48
2023/06/07 05:38:18;;;;;;;0.20;0.20;;;;;;;;;;5113744;28;20054;-48
2023/06/07 05:40:44;;;;;;;0.20;0.20;;;;;;;;;;5113501;28;20047;-51
2023/06/07 05:43:09;;;;;;;0.20;0.20;;;;;;;;;;5110682;28;20462;-48
2023/06/07 05:45:35;;;;;;;0.20;0.20;;;;;;;;;;5112218;28;20040;-48
2023/06/07 05:48:00;;;;;;;0.20;0.20;;;;;;;;;;5104852;28;20129;-51
2023/06/07 05:50:26;;;;;;;0.20;0.20;;;;;;;;;;5111736;28;20070;-50
2023/06/07 05:52:56;;;;;;;0.20;0.20;;;;;;;;;;5099645;28;20432;-53
2023/06/07 05:55:23;;;;;;;0.20;0.20;;;;;;;;;;5100070;27;21352;-48
2023/06/07 05:57:49;;;;;;;0.20;0.20;;;;;;;;;;5091919;28;20078;-48
2023/06/07 06:00:16;;;;;;;0.20;0.20;;;;;;;;;;5098143;28;20124;-47
2023/06/07 06:02:45;;;;;;;0.20;0.20;;;;;;;;;;5097314;28;21363;-49
2023/06/07 06:05:11;;;;;;;0.20;0.20;;;;;;;;;;5089484;27;20289;-49
2023/06/07 06:07:37;;;;;;;0.20;0.20;;;;;;;;;;5086058;27;20504;-47
2023/06/07 06:10:04;;;;;;;0.20;0.20;;;;;;;;;;5095512;28;20407;-48
2023/06/07 06:12:30;;;;;;;0.10;0.10;;;;;;;;;;5101369;28;20039;-47
2023/06/07 06:14:56;;;;;;;0.20;0.20;;;;;;;;;;5097078;27;20457;-48
2023/06/07 06:17:22;;;;;;;0.20;0.20;;;;;;;;;;5100705;27;20699;-48
2023/06/07 06:19:47;;;;;;;0.25;0.20;;;;;;;;;;5084710;28;20146;-47
2023/06/07 06:22:13;;;;;;;0.20;0.20;;;;;;;;;;5098301;27;20064;-48
2023/06/07 06:24:38;;;;;;;0.10;0.10;;;;;;;;;;5100947;27;20221;-47
2023/06/07 06:27:06;;;;;;;0.20;0.20;;;;;;;;;;5107460;27;20538;-48
2023/06/07 06:29:31;;;;;;;0.20;0.20;;;;;;;;;;5104228;27;20082;-47
2023/06/07 06:31:57;;;;;;;0.20;0.20;;;;;;;;;;5104298;27;20051;-53
2023/06/07 06:34:23;;;;;;;0.20;0.20;;;;;;;;;;5104142;27;20043;-56
2023/06/07 06:36:49;;;;;;;0.30;0.30;;;;;;;;;;5104220;28;20991;-48
2023/06/07 06:39:15;;;;;;;0.20;0.20;;;;;;;;;;5098917;27;20439;-59
2023/06/07 06:41:40;;;;;;;0.10;0.10;;;;;;;;;;5095455;27;20355;-46
2023/06/07 06:44:06;;;;;;;0.10;0.10;;;;;;;;;;5098087;27;20064;-46
2023/06/07 06:46:31;;;;;;;0.20;0.20;;;;;;;;;;5095049;27;20058;-46
2023/06/07 06:48:57;;;;;;;0.20;0.20;;;;;;;;;;5093086;27;20065;-48
2023/06/07 06:51:37;;;;;;;0.20;0.20;;;;;;;;;;5085467;27;20549;-50
2023/06/07 06:54:03;;;;;;;0.20;0.20;;;;;;;;;;5083292;27;20100;-46
2023/06/07 06:56:28;;;;;;;0.20;0.20;;;;;;;;;;5087343;27;20047;-47
2023/06/07 06:58:54;;;;;;;0.20;0.20;;;;;;;;;;5090792;27;20046;-47
2023/06/07 07:01:20;;;;;;;0.20;0.20;;;;;;;;;;5089069;27;20419;-46
2023/06/07 07:03:45;;;;;;;0.10;0.10;;;;;;;;;;5082876;27;20055;-47
2023/06/07 07:06:11;;;;;;;0.20;0.20;;;;;;;;;;5077709;27;20055;-48
2023/06/07 07:08:36;;;;;;;0.20;0.20;;;;;;;;;;5077577;27;20301;-47
2023/06/07 07:11:02;;;;;;;0.20;0.20;;;;;;;;;;5059317;27;20491;-47
2023/06/07 07:13:27;;;;;;;0.13;0.13;;;;;;;;;;5090167;27;20055;-48
2023/06/07 07:15:53;;;;;;;0.20;0.20;;;;;;;;;;5093438;28;20469;-47
2023/06/07 07:18:18;;;;;;;0.20;0.20;;;;;;;;;;5100301;27;20043;-48
2023/06/07 07:20:45;;;;;;;0.17;0.17;;;;;;;;;;5098929;27;20073;-47
2023/06/07 07:23:11;;;;;;;0.20;0.20;;;;;;;;;;5096603;27;20435;-47
2023/06/07 07:25:37;;;;;;;0.13;0.13;;;;;;;;;;5100137;27;20782;-47
2023/06/07 07:28:03;;;;;;;0.10;0.10;;;;;;;;;;5076868;28;20338;-48
2023/06/07 07:30:29;;;;;;;0.10;0.10;;;;;;;;;;5106825;27;20043;-47
2023/06/07 07:32:56;;;;;;;0.20;0.20;;;;;;;;;;5099996;27;20074;-46
2023/06/07 07:35:22;;;;;;;0.20;0.20;;;;;;;;;;5096230;27;20988;-48
2023/06/07 07:37:49;;;;;;;0.15;0.15;;;;;;;;;;5101131;27;20059;-46
2023/06/07 07:40:14;;;;;;;0.13;0.13;;;;;;;;;;5101634;27;20051;-48
2023/06/07 07:42:40;;;;;;;0.20;0.20;;;;;;;;;;5091629;27;20755;-46
2023/06/07 07:45:06;;;;;;;0.20;0.20;;;;;;;;;;5104218;27;20047;-48
2023/06/07 07:47:33;;;;;;;0.10;0.10;;;;;;;;;;5099785;27;20558;-46
2023/06/07 07:49:58;;;;;;;0.10;0.10;;;;;;;;;;5102561;27;20043;-47
2023/06/07 07:52:24;;;;;;;0.20;0.20;;;;;;;;;;5102922;27;20422;-47
2023/06/07 07:54:49;;;;;;;0.20;0.20;;;;;;;;;;5103435;27;20111;-48
2023/06/07 07:57:15;;;;;;;0.20;0.20;;;;;;;;;;5103310;28;20414;-47
2023/06/07 07:59:41;;;;;;;0.20;0.20;;;;;;;;;;5099590;28;20065;-48
2023/06/07 08:02:06;;;;;;;0.20;0.20;;;;;;;;;;5100416;28;20111;-46
2023/06/07 08:04:32;;;;;;;0.10;0.10;;;;;;;;;;5089785;27;20139;-47
2023/06/07 08:06:57;;;;;;;0.20;0.20;;;;;;;;;;5087349;27;20432;-48
2023/06/07 08:09:23;;;;;;;0.20;0.20;;;;;;;;;;5094903;28;20109;-48
2023/06/07 08:11:49;;;;;;;0.20;0.20;;;;;;;;;;5091002;27;20062;-49
2023/06/07 08:14:15;;;;;;;0.20;0.20;;;;;;;;;;5094343;27;20510;-47
2023/06/07 08:16:40;;;;;;;0.15;0.15;;;;;;;;;;5102363;28;20035;-47
2023/06/07 08:19:07;;;;;;;0.20;0.20;;;;;;;;;;5098254;28;20070;-47
2023/06/07 08:21:33;;;;;;;0.20;0.20;;;;;;;;;;5098448;28;20047;-48
2023/06/07 08:23:59;;;;;;;0.20;0.20;;;;;;;;;;5095744;27;20107;-47
2023/06/07 08:26:25;;;;;;;0.20;0.20;;;;;;;;;;5080692;28;20091;-48
2023/06/07 08:28:50;;;;;;;0.20;0.20;;;;;;;;;;5082005;27;20043;-50
2023/06/07 08:31:17;;;;;;;0.20;0.20;;;;;;;;;;5108352;27;20058;-46
2023/06/07 08:33:43;;;;;;;0.20;0.20;;;;;;;;;;5101399;28;20342;-46
2023/06/07 08:36:09;;;;;;;0.20;0.20;;;;;;;;;;5089583;28;20701;-48
2023/06/07 08:38:37;;;;;;;0.20;0.20;;;;;;;;;;5073060;28;20051;-57
2023/06/07 08:41:03;;;;;;;0.40;0.40;;;;;;;;;;5092907;27;20050;-47
2023/06/07 08:43:28;;;;;;;0.10;0.10;;;;;;;;;;5094588;27;20535;-49
2023/06/07 08:45:55;;;;;;;0.20;0.20;;;;;;;;;;5095229;27;20146;-47
2023/06/07 08:48:21;;;;;;;0.20;0.20;;;;;;;;;;5092492;27;20047;-48
2023/06/07 08:50:49;;;;;;;0.17;0.17;;;;;;;;;;5102124;27;20837;-47
2023/06/07 08:53:17;;;;;;;0.20;0.20;;;;;;;;;;5085594;28;20074;-47
2023/06/07 08:55:43;;;;;;;0.13;0.13;;;;;;;;;;5105916;27;20079;-47
2023/06/07 08:58:09;;;;;;;0.20;0.20;;;;;;;;;;5103121;27;20753;-48
2023/06/07 09:00:35;;;;;;;0.20;0.20;;;;;;;;;;5108089;27;20054;-47
2023/06/07 09:03:00;;;;;;;0.20;0.20;;;;;;;;;;5105052;27;20039;-47
2023/06/07 09:05:26;;;;;;;0.20;0.20;;;;;;;;;;5100545;27;20811;-48
2023/06/07 09:07:53;;;;;;;0.20;0.20;;;;;;;;;;5101329;27;20130;-48
2023/06/07 09:10:18;;;;;;;0.20;0.20;;;;;;;;;;5105919;27;20123;-47
2023/06/07 09:12:45;;;;;;;0.15;0.15;;;;;;;;;;5103533;27;20488;-47
2023/06/07 09:15:16;;;;;;;0.20;0.20;;;;;;;;;;5083351;28;20358;-47
2023/06/07 09:17:59;;;;;;;0.10;0.10;;;;;;;;;;5102923;27;20090;-47
2023/06/07 09:20:26;;;;;;;0.10;0.10;;;;;;;;;;5085734;27;20062;-47
2023/06/07 09:22:57;;;;;;;0.20;0.20;;;;;;;;;;5103647;27;20942;-47
2023/06/07 09:25:22;;;;;;;0.20;0.20;;;;;;;;;;5102861;27;20078;-48
2023/06/07 09:27:49;;;;;;;0.20;0.20;;;;;;;;;;5108347;27;20051;-46
2023/06/07 09:30:15;;;;;;;0.15;0.15;;;;;;;;;;5105442;27;20058;-47
2023/06/07 09:32:40;;;;;;;0.20;0.20;;;;;;;;;;5102062;27;20046;-47
2023/06/07 09:35:14;;;;;;;0.20;0.20;;;;;;;;;;5098509;28;20051;-49
2023/06/07 09:37:42;;;;;;;0.20;0.20;;;;;;;;;;5090792;28;20036;-46
2023/06/07 09:40:08;;;;;;;0.10;0.10;;;;;;;;;;5073414;28;20059;-48
2023/06/07 09:42:34;;;;;;;0.10;0.10;;;;;;;;;;5090863;28;20058;-48
2023/06/07 09:45:15;;;;;;;0.20;0.20;;;;;;;;;;5091140;27;20138;-47
2023/06/07 09:47:42;;;;;;;0.20;0.20;;;;;;;;;;5092519;27;20063;-49
2023/06/07 09:50:09;;;;;;;0.20;0.20;;;;;;;;;;5076079;27;20236;-46
2023/06/07 09:52:34;;;;;;;0.20;0.20;;;;;;;;;;5103625;27;20218;-47
2023/06/07 09:55:02;;;;;;;0.20;0.20;;;;;;;;;;5099726;27;20316;-47
2023/06/07 09:57:29;;;;;;;0.20;0.20;;;;;;;;;;5099889;27;20502;-48
2023/06/07 09:59:58;;;;;;;0.10;0.10;;;;;;;;;;5099395;27;20233;-47
2023/06/07 10:02:24;;;;;;;0.20;0.20;;;;;;;;;;5094837;27;20614;-47
2023/06/07 10:04:50;;;;;;;0.20;0.20;;;;;;;;;;5099825;27;20082;-49
2023/06/07 10:07:17;;;;;;;0.10;0.10;;;;;;;;;;5077785;28;20890;-46
2023/06/07 10:09:45;;;;;;;0.15;0.15;;;;;;;;;;5109526;27;20039;-45
2023/06/07 10:12:12;;;;;;;0.10;0.10;;;;;;;;;;5102582;27;20039;-48
2023/06/07 10:14:40;;;;;;;0.20;0.20;;;;;;;;;;5105337;27;20118;-47
2023/06/07 10:17:10;;;;;;;0.10;0.10;;;;;;;;;;5101029;28;20055;-50
2023/06/07 10:19:40;;;;;;;0.20;0.20;;;;;;;;;;5082626;27;20535;-47
2023/06/07 10:22:08;;;;;;;0.20;0.20;;;;;;;;;;5103171;27;20251;-47
2023/06/07 10:24:39;;;;;;;0.20;0.20;;;;;;;;;;5103193;27;20047;-49
2023/06/07 10:27:11;;;;;;;0.20;0.20;;;;;;;;;;5090596;27;20133;-48
2023/06/07 10:29:56;;;;;;;0.10;0.10;;;;;;;;;;5105864;27;20490;-48
2023/06/07 10:32:26;;;;;;;0.20;0.20;;;;;;;;;;5092993;27;20079;-49
2023/06/07 10:34:54;;;;;;;0.20;0.20;;;;;;;;;;5104431;27;20046;-51
2023/06/07 10:37:20;;;;;;;;;;;;;;;;;;5099404;27;20152;-49
2023/06/07 10:39:46;;;;;;;0.20;0.20;;;;;;;;;;5098935;28;20001;-48
2023/06/07 10:42:12;;;;;;;0.20;0.20;;;;;;;;;;5092739;27;20100;-46
2023/06/07 10:44:37;;;;;;;0.20;0.20;;;;;;;;;;5091227;27;20348;-48
2023/06/07 10:47:23;;;;;;;0.20;0.20;;;;;;;;;;5098738;27;20523;-48
2023/06/07 10:49:49;;;;;;;0.20;0.20;;;;;;;;;;5088378;28;20047;-48
2023/06/07 10:52:15;;;;;;;0.10;0.10;;;;;;;;;;5098710;28;20130;-49
2023/06/07 10:54:41;;;;;;;0.13;0.13;;;;;;;;;;5100945;28;20094;-47
2023/06/07 10:57:07;;;;;;;0.10;0.10;;;;;;;;;;5081356;28;20055;-46
2023/06/07 10:59:33;;;;;;;0.20;0.20;;;;;;;;;;5100836;27;20112;-46
2023/06/07 11:02:19;;;;;;;0.20;0.20;;;;;;;;;;5106755;28;20046;-47
2023/06/07 11:04:48;;;;;;;0.20;0.20;;;;;;;;;;5086964;27;20351;-48
2023/06/07 11:07:22;;;;;;;0.17;0.17;;;;;;;;;;5086799;28;20047;-48
2023/06/07 11:10:08;;;;;;;0.20;0.20;;;;;;;;;;5092445;27;20346;-47
2023/06/07 11:15:30;;;;;;;0.20;0.20;;;;;;;;;;5164084;27;20245;-46
2023/06/07 11:17:57;;;;;;;0.10;0.10;;;;;;;;;;5136639;27;20703;-47
2023/06/07 11:20:44;;;;;;;0.10;0.10;;;;;;;;;;5118983;27;20482;-49
2023/06/07 11:23:23;;;;;;;0.20;0.20;;;;;;;;;;5126663;27;20139;-49
2023/06/07 11:25:53;;;;;;;0.20;0.20;;;;;;;;;;5124653;27;20474;-47
2023/06/07 11:28:22;;;;;;;0.20;0.20;;;;;;;;;;5123920;27;20053;-47
2023/06/07 11:30:49;;;;;;;0.20;0.20;;;;;;;;;;5124160;27;20384;-46
2023/06/07 11:33:15;;;;;;;0.20;0.20;;;;;;;;;;5101333;27;20038;-48
2023/06/07 11:35:41;;;;;;;0.20;0.20;;;;;;;;;;5126708;27;20053;-47
2023/06/07 11:38:07;;;;;;;0.20;0.20;;;;;;;;;;5135503;27;20043;-47
2023/06/07 11:40:33;;;;;;;0.10;0.10;;;;;;;;;;5132442;27;20046;-50
2023/06/07 11:42:58;;;;;;;0.20;0.20;;;;;;;;;;5132356;27;20522;-47
2023/06/07 11:45:24;;;;;;;0.20;0.20;;;;;;;;;;5136331;27;20604;-49
2023/06/07 11:47:50;;;;;;;0.10;0.10;;;;;;;;;;5141478;27;20283;-47
2023/06/07 11:50:19;;;;;;;0.10;0.10;;;;;;;;;;5133774;27;20061;-47
2023/06/07 11:52:46;;;;;;;0.20;0.20;;;;;;;;;;5125372;27;20410;-46
2023/06/07 11:55:12;;;;;;;0.10;0.10;;;;;;;;;;5141636;27;20678;-47
2023/06/07 11:57:38;;;;;;;0.20;0.20;;;;;;;;;;5134296;27;20042;-55
2023/06/07 12:00:07;;;;;;;0.20;0.20;;;;;;;;;;5141224;27;20142;-48
2023/06/07 12:02:38;;;;;;;0.20;0.20;;;;;;;;;;5139245;27;20511;-47
2023/06/07 12:05:05;;;;;;;0.20;0.20;;;;;;;;;;5146087;27;20525;-48
2023/06/07 12:07:31;;;;;;;0.20;0.20;;;;;;;;;;5140472;27;20261;-47
2023/06/07 12:09:57;;;;;;;0.20;0.20;;;;;;;;;;5146602;27;20076;-47
2023/06/07 12:12:22;;;;;;;0.20;0.20;;;;;;;;;;5144437;27;20089;-47
2023/06/07 12:14:58;;;;;;;0.20;0.20;;;;;;;;;;5132918;27;20042;-46
2023/06/07 12:17:23;;;;;;;0.20;0.20;;;;;;;;;;5122142;27;20144;-47
2023/06/07 12:19:49;;;;;;;0.20;0.20;;;;;;;;;;5116263;27;20694;-46
2023/06/07 12:22:15;;;;;;;0.20;0.20;;;;;;;;;;5137123;27;20049;-47
2023/06/07 12:24:40;;;;;;;0.20;0.20;;;;;;;;;;5125931;27;20070;-47
2023/06/07 12:27:11;;;;;;;0.20;0.20;;;;;;;;;;5113295;27;20043;-47
2023/06/07 12:29:38;;;;;;;0.20;0.20;;;;;;;;;;5100476;27;20065;-48
2023/06/07 12:32:04;;;;;;;0.20;0.20;;;;;;;;;;5117007;27;20050;-50
2023/06/07 12:34:31;;;;;;;0.20;0.20;;;;;;;;;;5115057;27;20667;-48
2023/06/07 12:36:56;;;;;;;0.13;0.13;;;;;;;;;;5118021;27;20039;-47
2023/06/07 12:39:26;;;;;;;0.20;0.20;;;;;;;;;;5123730;27;20049;-47
2023/06/07 12:41:51;;;;;;;0.10;0.10;;;;;;;;;;5143503;27;20101;-44
2023/06/07 12:44:17;;;;;;;0.10;0.10;;;;;;;;;;5129620;27;20549;-48
2023/06/07 12:46:43;;;;;;;0.20;0.20;;;;;;;;;;5123371;27;20912;-46
2023/06/07 12:49:08;;;;;;;0.10;0.10;;;;;;;;;;5125392;27;20502;-52
2023/06/07 12:51:34;;;;;;;0.10;0.10;;;;;;;;;;5122073;27;20054;-60
2023/06/07 12:54:00;;;;;;;0.20;0.20;;;;;;;;;;5112040;27;20336;-47
2023/06/07 12:56:26;;;;;;;0.20;0.20;;;;;;;;;;5129568;27;20581;-46
2023/06/07 12:58:52;;;;;;;0.20;0.20;;;;;;;;;;5128758;27;20043;-49
2023/06/07 13:01:18;;;;;;;0.10;0.10;;;;;;;;;;5143626;27;20046;-46
2023/06/07 13:03:45;;;;;;;0.20;0.20;;;;;;;;;;5134658;27;20107;-47
2023/06/07 13:06:10;;;;;;;0.13;0.13;;;;;;;;;;5106703;27;20613;-47
2023/06/07 13:08:36;;;;;;;0.15;0.15;;;;;;;;;;5113385;27;20035;-46
2023/06/07 13:11:02;;;;;;;0.20;0.20;;;;;;;;;;5117575;27;20074;-46
2023/06/07 13:13:28;;;;;;;0.20;0.20;;;;;;;;;;5112096;27;20074;-47
2023/06/07 13:15:54;;;;;;;0.15;0.15;;;;;;;;;;5132389;27;20054;-47
2023/06/07 13:18:20;;;;;;;0.20;0.20;;;;;;;;;;5119370;27;20093;-47
2023/06/07 13:20:46;;;;;;;0.20;0.20;;;;;;;;;;5124749;27;20500;-46
2023/06/07 13:23:11;;;;;;;0.20;0.20;;;;;;;;;;5129891;27;20047;-46
2023/06/07 13:25:37;;;;;;;0.10;0.10;;;;;;;;;;5133443;27;20175;-47
2023/06/07 13:28:03;;;;;;;0.10;0.10;;;;;;;;;;5129823;27;20059;-50
2023/06/07 13:30:31;;;;;;;0.20;0.20;;;;;;;;;;5129175;27;20038;-48
2023/06/07 13:32:56;;;;;;;0.10;0.10;;;;;;;;;;5128499;27;20476;-46
2023/06/07 13:35:22;;;;;;;0.10;0.10;;;;;;;;;;5128760;27;20491;-49
2023/06/07 13:37:47;;;;;;;0.20;0.20;;;;;;;;;;5127224;27;20141;-50
2023/06/07 13:40:13;;;;;;;0.20;0.20;;;;;;;;;;5122847;27;20061;-47
2023/06/07 13:42:39;;;;;;;0.10;0.10;;;;;;;;;;5110392;27;20499;-48
2023/06/07 13:45:05;;;;;;;0.15;0.15;;;;;;;;;;5102571;27;20061;-48
2023/06/07 13:47:31;;;;;;;0.20;0.20;;;;;;;;;;5135298;27;20073;-48
2023/06/07 13:49:57;;;;;;;0.20;0.20;;;;;;;;;;5136539;27;20052;-47
2023/06/07 13:52:23;;;;;;;0.20;0.20;;;;;;;;;;5132955;27;20051;-47
2023/06/07 13:54:49;;;;;;;0.17;0.17;;;;;;;;;;5134552;27;20442;-46
2023/06/07 13:57:15;;;;;;;0.13;0.13;;;;;;;;;;5121983;27;20134;-47
2023/06/07 13:59:41;;;;;;;0.20;0.20;;;;;;;;;;5134423;27;20440;-48
2023/06/07 14:02:09;;;;;;;0.20;0.20;;;;;;;;;;5132647;27;20054;-47
2023/06/07 14:04:34;;;;;;;;;;;;;;;;;;5136149;27;20038;-47
2023/06/07 14:07:00;;;;;;;0.20;0.20;;;;;;;;;;5134249;27;20198;-48
2023/06/07 14:09:26;;;;;;;0.30;0.30;;;;;;;;;;5125225;27;20035;-47
2023/06/07 14:11:51;;;;;;;0.10;0.10;;;;;;;;;;5141332;27;20051;-46
2023/06/07 14:14:17;;;;;;;0.20;0.20;;;;;;;;;;5135654;27;20119;-47
2023/06/07 14:16:42;;;;;;;0.10;0.10;;;;;;;;;;5135687;27;20081;-47
2023/06/07 14:19:08;;;;;;;0.20;0.20;;;;;;;;;;5134582;27;20043;-47
2023/06/07 14:21:34;;;;;;;0.10;0.10;;;;;;;;;;5133301;27;20046;-47
2023/06/07 14:24:00;;;;;;;0.10;0.10;;;;;;;;;;5135933;27;20047;-47
2023/06/07 14:26:26;;;;;;;0.17;0.17;;;;;;;;;;5135491;27;20162;-46
2023/06/07 14:28:52;;;;;;;0.20;0.20;;;;;;;;;;5133940;27;20505;-47
2023/06/07 14:31:20;;;;;;;0.20;0.20;;;;;;;;;;5150803;27;20070;-46
2023/06/07 14:33:46;;;;;;;0.20;0.20;;;;;;;;;;5147792;27;20500;-49
2023/06/07 14:36:11;;;;;;;0.15;0.15;;;;;;;;;;5134923;27;20053;-46
2023/06/07 14:38:37;;;;;;;0.20;0.20;;;;;;;;;;5132239;27;20094;-48
2023/06/07 14:41:03;;;;;;;0.10;0.10;;;;;;;;;;5125443;27;20343;-47
2023/06/07 14:43:28;;;;;;;0.20;0.20;;;;;;;;;;5127346;27;20042;-47